Lobo

Go HERE for most recent data if this page is not up to date.

Jump to table bottom
Date/Time Temp deg F RH % 24 Hr Snow (in) Snow Depth (in) H2O (in)
06/17 20:00 26.8 100 "NAN" 4.0 0.01
06/17 19:00 28.6 100 "NAN" 3.5 0.01
06/17 18:00 29.6 92 "NAN" 3.1 0.03
06/17 17:00 29.8 100 "NAN" 2.7 0.03
06/17 16:00 30.1 100 "NAN" 1.9 0.03
06/17 15:00 30.0 100 "NAN" 1.5 0.02
06/17 14:00 30.8 100 "NAN" 1.2 0.02
06/17 13:00 30.3 100 "NAN" 0.9 0.00
06/17 12:00 30.7 100 "NAN" 1.0 0.01
06/17 11:00 29.4 100 "NAN" 0.9 0.05
06/17 10:00 28.3 100 "NAN" 0.9 0.03
06/17 09:00 30.9 92 "NAN" 0.9 0.00
06/17 08:00 33.4 86 "NAN" 0.8 0.00
06/17 07:00 36.2 61 "NAN" 0.8 0.00
06/17 06:00 34.7 72 "NAN" 0.8 0.00
06/17 05:00 34.7 74 "NAN" 0.9 0.00
06/17 04:00 35.3 61 "NAN" 0.9 0.00
06/17 03:00 35.5 58 "NAN" 0.9 0.00
06/17 02:00 36.0 48 "NAN" 1.0 0.00
06/17 01:00 36.4 44 "NAN" 0.9 0.00
06/17 00:00 38.1 50 "NAN" 0.9 0.00
06/16 23:00 41.3 39 "NAN" 0.9 0.00
06/16 22:00 41.6 32 "NAN" 1.0 0.00
06/16 21:00 42.6 36 "NAN" 0.9 0.00
06/16 20:00 43.6 33 "NAN" 1.0 0.00
06/16 19:00 45.0 30 "NAN" 1.0 0.00
06/16 18:00 46.4 29 "NAN" 1.1 0.00
06/16 17:00 46.2 26 "NAN" 1.1 0.00
06/16 16:00 46.4 26 "NAN" 1.3 0.00
06/16 15:00 45.0 24 "NAN" 1.9 0.00
06/16 14:00 43.9 17 "NAN" 1.4 0.00
06/16 13:00 41.5 23 "NAN" 1.6 0.00
06/16 12:00 39.3 22 "NAN" 1.4 0.00
06/16 11:00 36.2 27 "NAN" 1.3 0.00
06/16 10:00 33.8 28 "NAN" 1.3 0.00
06/16 09:00 30.8 37 "NAN" 1.1 0.00
06/16 08:00 28.3 46 "NAN" 1.2 0.00
06/16 07:00 27.0 59 "NAN" 1.1 0.00
06/16 06:00 26.7 63 "NAN" 1.0 0.00
06/16 05:00 27.7 64 "NAN" 0.9 0.00
06/16 04:00 28.7 54 "NAN" 1.1 0.00
06/16 03:00 29.3 65 "NAN" 0.8 0.00
06/16 02:00 30.2 75 "NAN" 0.8 0.00
06/16 01:00 31.7 72 "NAN" 0.7 0.00
06/16 00:00 33.6 74 "NAN" 0.9 0.00
.